Terminal Aerodrome Forecast
Issued by NWS

Home | Current Version | Previous Version | Text Only | Print | Product List | Glossary Off
Versions: 1 2 3 4 5 6 7 8 9 10 11 12 13 14 15 16 17 18

723
FTUS42 KMHX 181125
TAFOAJ
TAF
KOAJ 181125Z 1812/1912 16007KT 5SM SHRA VCTS BKN025CB
     FM181500 17008G15KT P6SM SHRA OVC040
     FM190100 15007KT 4SM SHRA VCTS OVC025CB
     FM190600 18009KT 4SM RA VCTS OVC027CB
      AMD LTD TO CLD VIS AND WIND=

USA.gov is the U.S. government's official web portal to all federal, state and local government web resources and services.